sensor_id;sensor_type;location;lat;lon;timestamp;pressure;altitude;pressure_sealevel;temperature;humidity
48652;BME280;34442;52.362;-1.302;2023-05-03T00:00:06;101470.22;;;10.00;100.00
48652;BME280;34442;52.362;-1.302;2023-05-03T00:02:35;101469.53;;;9.98;100.00
48652;BME280;34442;52.362;-1.302;2023-05-03T00:05:05;101471.75;;;9.86;100.00
48652;BME280;34442;52.362;-1.302;2023-05-03T00:07:32;101474.72;;;10.00;100.00
48652;BME280;34442;52.362;-1.302;2023-05-03T00:09:57;101475.19;;;10.03;100.00
48652;BME280;34442;52.362;-1.302;2023-05-03T00:12:23;101486.66;;;9.97;100.00
48652;BME280;34442;52.362;-1.302;2023-05-03T00:14:48;101481.47;;;9.87;100.00
48652;BME280;34442;52.362;-1.302;2023-05-03T00:17:14;101483.69;;;9.92;100.00
48652;BME280;34442;52.362;-1.302;2023-05-03T00:19:39;101483.50;;;9.93;100.00
48652;BME280;34442;52.362;-1.302;2023-05-03T00:22:05;101478.41;;;9.99;100.00
48652;BME280;34442;52.362;-1.302;2023-05-03T00:24:31;101485.88;;;9.88;100.00
48652;BME280;34442;52.362;-1.302;2023-05-03T00:26:57;101481.94;;;9.99;100.00
48652;BME280;34442;52.362;-1.302;2023-05-03T00:29:22;101484.13;;;9.95;100.00
48652;BME280;34442;52.362;-1.302;2023-05-03T00:31:47;101489.38;;;9.89;100.00
48652;BME280;34442;52.362;-1.302;2023-05-03T00:34:13;101478.66;;;9.89;100.00
48652;BME280;34442;52.362;-1.302;2023-05-03T00:36:38;101481.97;;;9.91;100.00
48652;BME280;34442;52.362;-1.302;2023-05-03T00:39:04;101467.88;;;9.97;100.00
48652;BME280;34442;52.362;-1.302;2023-05-03T00:41:29;101469.56;;;9.90;100.00
48652;BME280;34442;52.362;-1.302;2023-05-03T00:43:55;101476.06;;;9.95;100.00
48652;BME280;34442;52.362;-1.302;2023-05-03T00:46:20;101479.72;;;9.72;100.00
48652;BME280;34442;52.362;-1.302;2023-05-03T00:48:47;101466.44;;;9.78;100.00
48652;BME280;34442;52.362;-1.302;2023-05-03T00:51:14;101470.63;;;9.81;100.00
48652;BME280;34442;52.362;-1.302;2023-05-03T00:53:41;101460.06;;;9.79;100.00
48652;BME280;34442;52.362;-1.302;2023-05-03T00:56:06;101469.50;;;9.67;100.00
48652;BME280;34442;52.362;-1.302;2023-05-03T00:58:33;101469.34;;;9.68;100.00
48652;BME280;34442;52.362;-1.302;2023-05-03T01:01:01;101472.41;;;9.49;100.00
48652;BME280;34442;52.362;-1.302;2023-05-03T01:03:26;101470.53;;;9.58;100.00
48652;BME280;34442;52.362;-1.302;2023-05-03T01:06:07;101474.22;;;9.57;100.00
48652;BME280;34442;52.362;-1.302;2023-05-03T01:09:01;101467.53;;;9.53;100.00
48652;BME280;34442;52.362;-1.302;2023-05-03T01:11:47;101474.28;;;9.40;100.00
48652;BME280;34442;52.362;-1.302;2023-05-03T01:14:25;101477.66;;;9.42;100.00
48652;BME280;34442;52.362;-1.302;2023-05-03T01:16:56;101471.41;;;9.42;100.00
48652;BME280;34442;52.362;-1.302;2023-05-03T01:19:56;101476.28;;;9.47;100.00
48652;BME280;34442;52.362;-1.302;2023-05-03T01:25:13;101484.69;;;9.43;100.00
48652;BME280;34442;52.362;-1.302;2023-05-03T01:27:40;101475.31;;;9.39;100.00
48652;BME280;34442;52.362;-1.302;2023-05-03T01:30:08;101480.63;;;9.56;100.00
48652;BME280;34442;52.362;-1.302;2023-05-03T01:37:58;101479.44;;;9.50;100.00
48652;BME280;34442;52.362;-1.302;2023-05-03T01:40:25;101470.03;;;9.54;100.00
48652;BME280;34442;52.362;-1.302;2023-05-03T01:42:54;101473.59;;;9.55;100.00
48652;BME280;34442;52.362;-1.302;2023-05-03T01:45:20;101465.41;;;9.40;100.00
48652;BME280;34442;52.362;-1.302;2023-05-03T01:47:46;101467.25;;;9.39;100.00
48652;BME280;34442;52.362;-1.302;2023-05-03T01:50:11;101464.56;;;9.39;100.00
48652;BME280;34442;52.362;-1.302;2023-05-03T01:52:36;101461.03;;;9.47;100.00
48652;BME280;34442;52.362;-1.302;2023-05-03T01:55:02;101454.81;;;9.47;100.00
48652;BME280;34442;52.362;-1.302;2023-05-03T01:57:27;101450.31;;;9.39;100.00
48652;BME280;34442;52.362;-1.302;2023-05-03T01:59:53;101447.47;;;9.32;100.00
48652;BME280;34442;52.362;-1.302;2023-05-03T02:02:18;101446.63;;;9.32;100.00
48652;BME280;34442;52.362;-1.302;2023-05-03T02:04:44;101444.81;;;9.24;100.00
48652;BME280;34442;52.362;-1.302;2023-05-03T02:07:09;101453.84;;;9.31;100.00
48652;BME280;34442;52.362;-1.302;2023-05-03T02:09:35;101459.25;;;9.23;100.00
48652;BME280;34442;52.362;-1.302;2023-05-03T02:12:00;101445.50;;;9.18;100.00
48652;BME280;34442;52.362;-1.302;2023-05-03T02:14:25;101446.84;;;9.14;100.00
48652;BME280;34442;52.362;-1.302;2023-05-03T02:16:51;101446.34;;;9.10;100.00
48652;BME280;34442;52.362;-1.302;2023-05-03T02:19:19;101437.63;;;9.00;100.00
48652;BME280;34442;52.362;-1.302;2023-05-03T02:21:45;101439.16;;;9.03;100.00
48652;BME280;34442;52.362;-1.302;2023-05-03T02:24:10;101432.13;;;8.93;100.00
48652;BME280;34442;52.362;-1.302;2023-05-03T02:26:36;101433.47;;;8.98;100.00
48652;BME280;34442;52.362;-1.302;2023-05-03T02:29:01;101427.13;;;8.82;100.00
48652;BME280;34442;52.362;-1.302;2023-05-03T02:31:27;101433.66;;;8.72;100.00
48652;BME280;34442;52.362;-1.302;2023-05-03T02:33:52;101437.53;;;8.61;100.00
48652;BME280;34442;52.362;-1.302;2023-05-03T02:36:19;101428.97;;;8.74;100.00
48652;BME280;34442;52.362;-1.302;2023-05-03T02:38:46;101423.09;;;8.62;100.00
48652;BME280;34442;52.362;-1.302;2023-05-03T02:41:11;101427.97;;;8.75;100.00
48652;BME280;34442;52.362;-1.302;2023-05-03T02:43:37;101427.31;;;8.64;100.00
48652;BME280;34442;52.362;-1.302;2023-05-03T02:46:02;101425.78;;;8.70;100.00
48652;BME280;34442;52.362;-1.302;2023-05-03T02:48:27;101425.97;;;8.60;100.00
48652;BME280;34442;52.362;-1.302;2023-05-03T02:50:53;101428.47;;;8.62;100.00
48652;BME280;34442;52.362;-1.302;2023-05-03T02:53:19;101430.31;;;8.61;100.00
48652;BME280;34442;52.362;-1.302;2023-05-03T02:55:44;101431.81;;;8.72;100.00
48652;BME280;34442;52.362;-1.302;2023-05-03T02:58:10;101434.84;;;8.61;100.00
48652;BME280;34442;52.362;-1.302;2023-05-03T03:00:36;101437.34;;;8.70;100.00
48652;BME280;34442;52.362;-1.302;2023-05-03T03:03:01;101433.81;;;8.78;100.00
48652;BME280;34442;52.362;-1.302;2023-05-03T03:05:27;101434.66;;;8.70;100.00
48652;BME280;34442;52.362;-1.302;2023-05-03T03:07:53;101434.34;;;8.57;100.00
48652;BME280;34442;52.362;-1.302;2023-05-03T03:10:18;101432.50;;;8.66;100.00
48652;BME280;34442;52.362;-1.302;2023-05-03T03:12:43;101434.47;;;8.64;100.00
48652;BME280;34442;52.362;-1.302;2023-05-03T03:15:09;101442.69;;;8.79;100.00
48652;BME280;34442;52.362;-1.302;2023-05-03T03:17:35;101449.72;;;8.80;100.00
48652;BME280;34442;52.362;-1.302;2023-05-03T03:20:07;101442.38;;;8.90;100.00
48652;BME280;34442;52.362;-1.302;2023-05-03T03:22:36;101446.72;;;8.83;100.00
48652;BME280;34442;52.362;-1.302;2023-05-03T03:25:02;101448.25;;;8.77;100.00
48652;BME280;34442;52.362;-1.302;2023-05-03T03:27:28;101445.88;;;8.90;100.00
48652;BME280;34442;52.362;-1.302;2023-05-03T03:29:54;101438.50;;;8.84;100.00
48652;BME280;34442;52.362;-1.302;2023-05-03T03:32:19;101439.19;;;8.78;100.00
48652;BME280;34442;52.362;-1.302;2023-05-03T03:34:45;101436.16;;;8.89;100.00
48652;BME280;34442;52.362;-1.302;2023-05-03T03:37:11;101431.47;;;8.83;100.00
48652;BME280;34442;52.362;-1.302;2023-05-03T03:39:36;101429.28;;;8.87;100.00
48652;BME280;34442;52.362;-1.302;2023-05-03T03:42:04;101432.47;;;8.90;100.00
48652;BME280;34442;52.362;-1.302;2023-05-03T03:44:29;101424.09;;;8.85;100.00
48652;BME280;34442;52.362;-1.302;2023-05-03T03:46:55;101429.78;;;8.90;100.00
48652;BME280;34442;52.362;-1.302;2023-05-03T03:49:20;101424.09;;;8.85;100.00
48652;BME280;34442;52.362;-1.302;2023-05-03T03:51:45;101431.97;;;8.87;100.00
48652;BME280;34442;52.362;-1.302;2023-05-03T03:54:12;101420.09;;;8.81;100.00
48652;BME280;34442;52.362;-1.302;2023-05-03T03:56:38;101417.72;;;8.78;100.00
48652;BME280;34442;52.362;-1.302;2023-05-03T03:59:03;101421.75;;;8.66;100.00
48652;BME280;34442;52.362;-1.302;2023-05-03T04:01:29;101429.81;;;8.58;100.00
48652;BME280;34442;52.362;-1.302;2023-05-03T04:03:54;101420.09;;;8.65;100.00
48652;BME280;34442;52.362;-1.302;2023-05-03T04:06:20;101414.22;;;8.61;100.00
48652;BME280;34442;52.362;-1.302;2023-05-03T04:08:45;101420.09;;;8.65;100.00
48652;BME280;34442;52.362;-1.302;2023-05-03T04:11:11;101411.22;;;8.64;100.00
48652;BME280;34442;52.362;-1.302;2023-05-03T04:13:37;101413.03;;;8.64;100.00
48652;BME280;34442;52.362;-1.302;2023-05-03T04:16:03;101408.38;;;8.58;100.00
48652;BME280;34442;52.362;-1.302;2023-05-03T04:18:28;101402.31;;;8.56;100.00
48652;BME280;34442;52.362;-1.302;2023-05-03T04:20:53;101401.84;;;8.44;100.00
48652;BME280;34442;52.362;-1.302;2023-05-03T04:23:19;101403.34;;;8.47;100.00
48652;BME280;34442;52.362;-1.302;2023-05-03T04:25:44;101410.38;;;8.39;100.00
48652;BME280;34442;52.362;-1.302;2023-05-03T04:28:13;101411.00;;;8.25;100.00
48652;BME280;34442;52.362;-1.302;2023-05-03T04:30:39;101405.81;;;8.24;100.00
48652;BME280;34442;52.362;-1.302;2023-05-03T04:33:07;101398.94;;;8.29;100.00
48652;BME280;34442;52.362;-1.302;2023-05-03T04:35:33;101395.75;;;8.17;100.00
48652;BME280;34442;52.362;-1.302;2023-05-03T04:37:58;101390.59;;;8.24;100.00
48652;BME280;34442;52.362;-1.302;2023-05-03T04:40:24;101401.63;;;8.29;100.00
48652;BME280;34442;52.362;-1.302;2023-05-03T04:42:50;101401.94;;;8.18;100.00
48652;BME280;34442;52.362;-1.302;2023-05-03T04:45:15;101399.97;;;8.28;100.00
48652;BME280;34442;52.362;-1.302;2023-05-03T04:47:42;101406.47;;;8.26;100.00
48652;BME280;34442;52.362;-1.302;2023-05-03T04:50:08;101400.09;;;8.27;100.00
48652;BME280;34442;52.362;-1.302;2023-05-03T04:52:35;101407.50;;;8.25;100.00
48652;BME280;34442;52.362;-1.302;2023-05-03T04:55:00;101404.50;;;8.28;100.00
48652;BME280;34442;52.362;-1.302;2023-05-03T04:57:26;101402.31;;;8.15;100.00
48652;BME280;34442;52.362;-1.302;2023-05-03T04:59:54;101401.28;;;8.16;100.00
48652;BME280;34442;52.362;-1.302;2023-05-03T05:02:20;101407.78;;;8.05;100.00
48652;BME280;34442;52.362;-1.302;2023-05-03T05:04:45;101409.81;;;8.11;100.00
48652;BME280;34442;52.362;-1.302;2023-05-03T05:07:12;101417.19;;;8.17;100.00
48652;BME280;34442;52.362;-1.302;2023-05-03T05:09:37;101415.69;;;8.07;100.00
48652;BME280;34442;52.362;-1.302;2023-05-03T05:12:03;101417.34;;;8.16;100.00
48652;BME280;34442;52.362;-1.302;2023-05-03T05:14:31;101428.09;;;8.24;100.00
48652;BME280;34442;52.362;-1.302;2023-05-03T05:17:00;101429.44;;;8.28;100.00
48652;BME280;34442;52.362;-1.302;2023-05-03T05:19:25;101426.56;;;8.21;100.00
48652;BME280;34442;52.362;-1.302;2023-05-03T05:21:51;101428.41;;;8.29;100.00
48652;BME280;34442;52.362;-1.302;2023-05-03T05:24:16;101423.91;;;8.30;100.00
48652;BME280;34442;52.362;-1.302;2023-05-03T05:26:42;101430.59;;;8.34;100.00
48652;BME280;34442;52.362;-1.302;2023-05-03T05:29:08;101426.78;;;8.44;100.00
48652;BME280;34442;52.362;-1.302;2023-05-03T05:31:33;101426.78;;;8.44;100.00
48652;BME280;34442;52.362;-1.302;2023-05-03T05:33:59;101426.47;;;8.39;100.00
48652;BME280;34442;52.362;-1.302;2023-05-03T05:36:25;101434.66;;;8.62;100.00
48652;BME280;34442;52.362;-1.302;2023-05-03T05:38:50;101432.50;;;8.58;100.00
48652;BME280;34442;52.362;-1.302;2023-05-03T05:41:18;101427.13;;;8.66;100.00
48652;BME280;34442;52.362;-1.302;2023-05-03T05:43:45;101424.78;;;8.63;100.00
48652;BME280;34442;52.362;-1.302;2023-05-03T05:46:10;101433.00;;;8.78;100.00
48652;BME280;34442;52.362;-1.302;2023-05-03T05:48:36;101443.38;;;8.81;100.00
48652;BME280;34442;52.362;-1.302;2023-05-03T05:51:01;101437.34;;;8.87;100.00
48652;BME280;34442;52.362;-1.302;2023-05-03T05:53:27;101427.44;;;8.87;100.00
48652;BME280;34442;52.362;-1.302;2023-05-03T05:55:53;101433.47;;;9.06;100.00
48652;BME280;34442;52.362;-1.302;2023-05-03T05:58:18;101435.13;;;9.07;100.00
48652;BME280;34442;52.362;-1.302;2023-05-03T06:00:43;101439.66;;;9.06;100.00
48652;BME280;34442;52.362;-1.302;2023-05-03T06:03:09;101438.63;;;9.15;100.00
48652;BME280;34442;52.362;-1.302;2023-05-03T06:05:34;101434.44;;;9.13;100.00
48652;BME280;34442;52.362;-1.302;2023-05-03T06:08:00;101449.38;;;9.07;100.00
48652;BME280;34442;52.362;-1.302;2023-05-03T06:10:25;101444.16;;;9.22;100.00
48652;BME280;34442;52.362;-1.302;2023-05-03T06:12:50;101447.81;;;9.21;100.00
48652;BME280;34442;52.362;-1.302;2023-05-03T06:15:16;101446.44;;;9.33;100.00
48652;BME280;34442;52.362;-1.302;2023-05-03T06:17:42;101446.25;;;9.51;100.00
48652;BME280;34442;52.362;-1.302;2023-05-03T06:20:08;101452.25;;;9.53;100.00
48652;BME280;34442;52.362;-1.302;2023-05-03T06:22:37;101448.91;;;9.59;100.00
48652;BME280;34442;52.362;-1.302;2023-05-03T06:25:03;101445.41;;;9.51;100.00
48652;BME280;34442;52.362;-1.302;2023-05-03T06:27:28;101444.91;;;9.47;100.00
48652;BME280;34442;52.362;-1.302;2023-05-03T06:29:54;101448.19;;;9.65;100.00
48652;BME280;34442;52.362;-1.302;2023-05-03T06:32:19;101446.00;;;9.69;100.00
48652;BME280;34442;52.362;-1.302;2023-05-03T06:34:47;101439.09;;;9.75;100.00
48652;BME280;34442;52.362;-1.302;2023-05-03T06:37:12;101443.72;;;9.89;100.00
48652;BME280;34442;52.362;-1.302;2023-05-03T06:39:38;101436.81;;;9.94;100.00
48652;BME280;34442;52.362;-1.302;2023-05-03T06:42:03;101443.28;;;9.77;100.00
48652;BME280;34442;52.362;-1.302;2023-05-03T06:44:29;101438.00;;;9.92;100.00
48652;BME280;34442;52.362;-1.302;2023-05-03T06:46:54;101436.50;;;9.89;100.00
48652;BME280;34442;52.362;-1.302;2023-05-03T06:49:19;101435.09;;;10.02;100.00
48652;BME280;34442;52.362;-1.302;2023-05-03T06:51:46;101432.78;;;10.30;100.00
48652;BME280;34442;52.362;-1.302;2023-05-03T06:54:11;101436.72;;;10.11;100.00
48652;BME280;34442;52.362;-1.302;2023-05-03T06:56:36;101430.25;;;10.20;100.00
48652;BME280;34442;52.362;-1.302;2023-05-03T06:59:02;101431.47;;;10.17;100.00
48652;BME280;34442;52.362;-1.302;2023-05-03T07:01:28;101437.13;;;10.31;100.00
48652;BME280;34442;52.362;-1.302;2023-05-03T07:03:54;101440.28;;;10.34;100.00
48652;BME280;34442;52.362;-1.302;2023-05-03T07:06:20;101433.25;;;10.33;100.00
48652;BME280;34442;52.362;-1.302;2023-05-03T07:08:47;101435.25;;;10.31;100.00
48652;BME280;34442;52.362;-1.302;2023-05-03T07:11:13;101436.56;;;10.12;100.00
48652;BME280;34442;52.362;-1.302;2023-05-03T07:13:38;101430.25;;;10.20;100.00
48652;BME280;34442;52.362;-1.302;2023-05-03T07:16:04;101440.28;;;10.34;100.00
48652;BME280;34442;52.362;-1.302;2023-05-03T07:18:29;101445.19;;;10.31;100.00
48652;BME280;34442;52.362;-1.302;2023-05-03T07:20:55;101438.84;;;10.47;100.00
48652;BME280;34442;52.362;-1.302;2023-05-03T07:23:23;101433.91;;;10.58;100.00
48652;BME280;34442;52.362;-1.302;2023-05-03T07:25:49;101436.25;;;10.76;100.00
48652;BME280;34442;52.362;-1.302;2023-05-03T07:28:15;101442.59;;;10.83;100.00
48652;BME280;34442;52.362;-1.302;2023-05-03T07:30:40;101444.19;;;10.92;100.00
48652;BME280;34442;52.362;-1.302;2023-05-03T07:33:09;101434.25;;;10.78;100.00
48652;BME280;34442;52.362;-1.302;2023-05-03T07:35:34;101425.56;;;10.68;100.00
48652;BME280;34442;52.362;-1.302;2023-05-03T07:38:00;101428.31;;;10.60;100.00
48652;BME280;34442;52.362;-1.302;2023-05-03T07:40:25;101421.53;;;10.26;100.00
48652;BME280;34442;52.362;-1.302;2023-05-03T07:42:53;101423.78;;;10.60;100.00
48652;BME280;34442;52.362;-1.302;2023-05-03T07:45:18;101426.03;;;10.72;100.00
48652;BME280;34442;52.362;-1.302;2023-05-03T07:47:45;101426.81;;;10.80;100.00
48652;BME280;34442;52.362;-1.302;2023-05-03T07:50:10;101424.63;;;10.99;100.00
48652;BME280;34442;52.362;-1.302;2023-05-03T07:52:38;101423.13;;;10.96;100.00
48652;BME280;34442;52.362;-1.302;2023-05-03T07:55:05;101431.13;;;11.04;100.00
48652;BME280;34442;52.362;-1.302;2023-05-03T07:57:31;101425.94;;;11.03;100.00
48652;BME280;34442;52.362;-1.302;2023-05-03T07:59:56;101418.06;;;11.16;100.00
48652;BME280;34442;52.362;-1.302;2023-05-03T08:02:22;101428.34;;;11.12;100.00
48652;BME280;34442;52.362;-1.302;2023-05-03T08:04:47;101418.88;;;11.16;100.00
48652;BME280;34442;52.362;-1.302;2023-05-03T08:07:13;101419.91;;;11.30;100.00
48652;BME280;34442;52.362;-1.302;2023-05-03T08:09:39;101421.28;;;11.26;100.00
48652;BME280;34442;52.362;-1.302;2023-05-03T08:12:05;101422.88;;;11.50;100.00
48652;BME280;34442;52.362;-1.302;2023-05-03T08:14:30;101416.53;;;11.73;100.00
48652;BME280;34442;52.362;-1.302;2023-05-03T08:16:57;101416.69;;;11.71;100.00
48652;BME280;34442;52.362;-1.302;2023-05-03T08:19:23;101412.78;;;11.88;100.00
48652;BME280;34442;52.362;-1.302;2023-05-03T08:21:49;101411.28;;;12.01;100.00
48652;BME280;34442;52.362;-1.302;2023-05-03T08:24:16;101409.91;;;11.75;100.00
48652;BME280;34442;52.362;-1.302;2023-05-03T08:26:41;101404.56;;;12.11;100.00
48652;BME280;34442;52.362;-1.302;2023-05-03T08:29:07;101411.88;;;12.17;100.00
48652;BME280;34442;52.362;-1.302;2023-05-03T08:31:33;101400.56;;;12.29;100.00
48652;BME280;34442;52.362;-1.302;2023-05-03T08:33:59;101413.72;;;12.17;100.00
48652;BME280;34442;52.362;-1.302;2023-05-03T08:36:25;101406.75;;;12.23;100.00
48652;BME280;34442;52.362;-1.302;2023-05-03T08:38:51;101404.50;;;12.48;100.00
48652;BME280;34442;52.362;-1.302;2023-05-03T08:41:29;101405.78;;;12.52;99.05
48652;BME280;34442;52.362;-1.302;2023-05-03T08:43:56;101407.31;;;12.61;100.00
48652;BME280;34442;52.362;-1.302;2023-05-03T08:46:22;101408.78;;;12.91;99.03
48652;BME280;34442;52.362;-1.302;2023-05-03T08:48:51;101405.38;;;12.76;98.56
48652;BME280;34442;52.362;-1.302;2023-05-03T08:51:21;101408.00;;;12.70;98.09
48652;BME280;34442;52.362;-1.302;2023-05-03T08:53:47;101407.09;;;12.84;97.70
48652;BME280;34442;52.362;-1.302;2023-05-03T08:56:27;101413.31;;;12.63;93.27
48652;BME280;34442;52.362;-1.302;2023-05-03T08:58:54;101412.19;;;12.72;97.64
48652;BME280;34442;52.362;-1.302;2023-05-03T09:01:19;101407.91;;;12.56;96.75
48652;BME280;34442;52.362;-1.302;2023-05-03T09:03:49;101411.63;;;12.83;96.34
48652;BME280;34442;52.362;-1.302;2023-05-03T09:06:20;101411.78;;;13.03;96.33
48652;BME280;34442;52.362;-1.302;2023-05-03T09:08:46;101407.38;;;13.24;96.08
48652;BME280;34442;52.362;-1.302;2023-05-03T09:11:21;101412.66;;;13.38;90.11
48652;BME280;34442;52.362;-1.302;2023-05-03T09:13:48;101409.78;;;13.47;93.45
48652;BME280;34442;52.362;-1.302;2023-05-03T09:16:21;101405.94;;;13.69;90.45
48652;BME280;34442;52.362;-1.302;2023-05-03T09:19:01;101405.00;;;13.49;87.40
48652;BME280;34442;52.362;-1.302;2023-05-03T09:21:27;101409.41;;;13.56;91.69
48652;BME280;34442;52.362;-1.302;2023-05-03T09:23:53;101411.16;;;13.77;91.48
48652;BME280;34442;52.362;-1.302;2023-05-03T09:29:01;101405.72;;;13.64;90.87
48652;BME280;34442;52.362;-1.302;2023-05-03T09:31:28;101408.16;;;14.20;90.84
48652;BME280;34442;52.362;-1.302;2023-05-03T09:33:55;101407.75;;;14.23;88.91
48652;BME280;34442;52.362;-1.302;2023-05-03T09:36:20;101399.47;;;14.45;90.64
48652;BME280;34442;52.362;-1.302;2023-05-03T09:38:46;101404.06;;;14.64;86.95
48652;BME280;34442;52.362;-1.302;2023-05-03T09:41:11;101405.53;;;14.73;88.06
48652;BME280;34442;52.362;-1.302;2023-05-03T09:43:50;101396.38;;;14.68;80.89
48652;BME280;34442;52.362;-1.302;2023-05-03T09:46:16;101410.25;;;14.31;89.70
48652;BME280;34442;52.362;-1.302;2023-05-03T09:48:42;101399.06;;;14.68;88.49
48652;BME280;34442;52.362;-1.302;2023-05-03T09:51:09;101409.91;;;14.87;88.56
48652;BME280;34442;52.362;-1.302;2023-05-03T09:53:36;101408.16;;;15.33;86.87
48652;BME280;34442;52.362;-1.302;2023-05-03T09:56:04;101404.59;;;15.32;85.53
48652;BME280;34442;52.362;-1.302;2023-05-03T09:58:31;101410.94;;;15.06;85.73
48652;BME280;34442;52.362;-1.302;2023-05-03T10:00:59;101404.84;;;15.31;86.18
48652;BME280;34442;52.362;-1.302;2023-05-03T10:03:51;101401.19;;;15.57;72.30
48652;BME280;34442;52.362;-1.302;2023-05-03T10:06:34;101402.72;;;15.39;73.33
48652;BME280;34442;52.362;-1.302;2023-05-03T10:09:02;101400.31;;;15.76;84.24
48652;BME280;34442;52.362;-1.302;2023-05-03T10:11:32;101392.66;;;16.05;82.53
48652;BME280;34442;52.362;-1.302;2023-05-03T10:13:58;101404.88;;;15.76;82.45
48652;BME280;34442;52.362;-1.302;2023-05-03T10:16:27;101381.97;;;15.72;84.85
48652;BME280;34442;52.362;-1.302;2023-05-03T10:19:14;101387.41;;;15.58;73.42
48652;BME280;34442;52.362;-1.302;2023-05-03T10:21:54;101388.47;;;15.57;73.94
48652;BME280;34442;52.362;-1.302;2023-05-03T10:24:22;101383.91;;;15.96;83.07
48652;BME280;34442;52.362;-1.302;2023-05-03T10:26:49;101383.41;;;15.74;83.90
48652;BME280;34442;52.362;-1.302;2023-05-03T10:32:28;101390.94;;;15.72;72.04
48652;BME280;34442;52.362;-1.302;2023-05-03T10:34:56;101383.34;;;15.87;81.98
48652;BME280;34442;52.362;-1.302;2023-05-03T10:37:25;101388.09;;;15.99;78.35
48652;BME280;34442;52.362;-1.302;2023-05-03T10:39:52;101371.66;;;15.94;80.65
48652;BME280;34442;52.362;-1.302;2023-05-03T10:42:21;101371.16;;;15.58;78.05
48652;BME280;34442;52.362;-1.302;2023-05-03T10:44:51;101364.88;;;15.71;73.41
48652;BME280;34442;52.362;-1.302;2023-05-03T10:47:22;101370.13;;;15.66;76.58
48652;BME280;34442;52.362;-1.302;2023-05-03T10:55:15;101355.41;;;15.87;75.73
48652;BME280;34442;52.362;-1.302;2023-05-03T10:57:43;101360.25;;;15.78;77.91
48652;BME280;34442;52.362;-1.302;2023-05-03T11:00:13;101358.63;;;15.71;74.40
48652;BME280;34442;52.362;-1.302;2023-05-03T11:05:42;101345.59;;;15.86;76.99
48652;BME280;34442;52.362;-1.302;2023-05-03T11:10:36;101339.66;;;16.02;76.35
48652;BME280;34442;52.362;-1.302;2023-05-03T11:13:01;101335.47;;;16.06;73.79
48652;BME280;34442;52.362;-1.302;2023-05-03T11:15:29;101327.31;;;15.75;75.05
48652;BME280;34442;52.362;-1.302;2023-05-03T11:17:55;101338.66;;;15.97;74.74
48652;BME280;34442;52.362;-1.302;2023-05-03T11:20:21;101332.44;;;15.90;74.30
48652;BME280;34442;52.362;-1.302;2023-05-03T11:22:46;101333.81;;;15.16;74.10
48652;BME280;34442;52.362;-1.302;2023-05-03T11:25:12;101318.16;;;15.18;73.20
48652;BME280;34442;52.362;-1.302;2023-05-03T11:27:40;101317.00;;;15.52;72.70
48652;BME280;34442;52.362;-1.302;2023-05-03T11:30:07;101317.44;;;15.87;70.42
48652;BME280;34442;52.362;-1.302;2023-05-03T11:32:33;101310.59;;;15.84;71.79
48652;BME280;34442;52.362;-1.302;2023-05-03T11:35:00;101299.19;;;15.69;71.67
48652;BME280;34442;52.362;-1.302;2023-05-03T11:37:27;101306.03;;;15.78;71.24
48652;BME280;34442;52.362;-1.302;2023-05-03T11:39:53;101305.69;;;15.55;73.24
48652;BME280;34442;52.362;-1.302;2023-05-03T11:42:18;101304.03;;;15.54;72.76
48652;BME280;34442;52.362;-1.302;2023-05-03T11:44:43;101291.44;;;16.04;71.75
48652;BME280;34442;52.362;-1.302;2023-05-03T11:47:09;101286.94;;;15.53;61.93
48652;BME280;34442;52.362;-1.302;2023-05-03T11:49:34;101292.44;;;15.85;69.96
48652;BME280;34442;52.362;-1.302;2023-05-03T11:52:00;101286.28;;;15.96;69.63
48652;BME280;34442;52.362;-1.302;2023-05-03T11:54:25;101283.16;;;16.68;64.52
48652;BME280;34442;52.362;-1.302;2023-05-03T11:56:57;101280.44;;;15.68;68.11
48652;BME280;34442;52.362;-1.302;2023-05-03T11:59:38;101272.88;;;15.76;64.72
48652;BME280;34442;52.362;-1.302;2023-05-03T12:02:05;101266.84;;;15.74;65.50
48652;BME280;34442;52.362;-1.302;2023-05-03T12:04:31;101255.56;;;15.77;67.71
48652;BME280;34442;52.362;-1.302;2023-05-03T12:06:57;101264.91;;;15.81;69.35
48652;BME280;34442;52.362;-1.302;2023-05-03T12:09:23;101253.97;;;16.20;67.78
48652;BME280;34442;52.362;-1.302;2023-05-03T12:11:50;101259.13;;;15.71;68.16
48652;BME280;34442;52.362;-1.302;2023-05-03T12:14:15;101250.81;;;15.28;66.03
48652;BME280;34442;52.362;-1.302;2023-05-03T12:16:46;101252.47;;;15.35;68.22
48652;BME280;34442;52.362;-1.302;2023-05-03T12:19:28;101244.47;;;15.47;63.60
48652;BME280;34442;52.362;-1.302;2023-05-03T12:21:54;101241.88;;;15.27;69.82
48652;BME280;34442;52.362;-1.302;2023-05-03T12:24:20;101248.19;;;15.14;68.81
48652;BME280;34442;52.362;-1.302;2023-05-03T12:26:48;101234.16;;;15.24;70.10
48652;BME280;34442;52.362;-1.302;2023-05-03T12:29:13;101247.88;;;15.36;69.96
48652;BME280;34442;52.362;-1.302;2023-05-03T12:31:39;101242.34;;;15.56;69.33
48652;BME280;34442;52.362;-1.302;2023-05-03T12:34:05;101233.09;;;15.32;69.74
48652;BME280;34442;52.362;-1.302;2023-05-03T12:36:30;101236.44;;;15.27;69.73
48652;BME280;34442;52.362;-1.302;2023-05-03T12:39:00;101233.75;;;15.27;71.51
48652;BME280;34442;52.362;-1.302;2023-05-03T12:41:26;101239.56;;;14.73;70.61
48652;BME280;34442;52.362;-1.302;2023-05-03T12:43:56;101226.44;;;14.76;72.02
48652;BME280;34442;52.362;-1.302;2023-05-03T12:46:22;101229.47;;;15.06;71.12
48652;BME280;34442;52.362;-1.302;2023-05-03T12:48:48;101222.13;;;15.13;70.84
48652;BME280;34442;52.362;-1.302;2023-05-03T12:51:14;101212.81;;;15.03;70.84
48652;BME280;34442;52.362;-1.302;2023-05-03T12:53:40;101218.97;;;14.78;70.52
48652;BME280;34442;52.362;-1.302;2023-05-03T12:56:05;101227.19;;;15.03;70.29
48652;BME280;34442;52.362;-1.302;2023-05-03T12:58:31;101214.72;;;14.96;68.79
48652;BME280;34442;52.362;-1.302;2023-05-03T13:00:56;101211.44;;;14.80;68.81